sensor_id;sensor_type;location;lat;lon;timestamp;temperature;humidity
23231;DHT22;11784;49.818;8.632;2023-02-01T00:01:26;9.40;92.60
23231;DHT22;11784;49.818;8.632;2023-02-01T00:03:52;9.40;92.70
23231;DHT22;11784;49.818;8.632;2023-02-01T00:06:17;9.30;92.80
23231;DHT22;11784;49.818;8.632;2023-02-01T00:08:43;9.30;92.90
23231;DHT22;11784;49.818;8.632;2023-02-01T00:11:10;9.30;93.10
23231;DHT22;11784;49.818;8.632;2023-02-01T00:13:39;9.20;93.10
23231;DHT22;11784;49.818;8.632;2023-02-01T00:16:07;9.20;93.30
23231;DHT22;11784;49.818;8.632;2023-02-01T00:18:33;9.20;93.50
23231;DHT22;11784;49.818;8.632;2023-02-01T00:20:58;9.10;93.80
23231;DHT22;11784;49.818;8.632;2023-02-01T00:23:24;9.10;94.10
23231;DHT22;11784;49.818;8.632;2023-02-01T00:25:50;9.10;94.20
23231;DHT22;11784;49.818;8.632;2023-02-01T00:28:15;9.00;94.20
23231;DHT22;11784;49.818;8.632;2023-02-01T00:30:43;9.00;94.40
23231;DHT22;11784;49.818;8.632;2023-02-01T00:33:08;9.00;94.60
23231;DHT22;11784;49.818;8.632;2023-02-01T00:35:35;9.00;94.60
23231;DHT22;11784;49.818;8.632;2023-02-01T00:38:01;9.10;94.60
23231;DHT22;11784;49.818;8.632;2023-02-01T00:40:26;9.00;94.70
23231;DHT22;11784;49.818;8.632;2023-02-01T00:42:52;9.10;95.10
23231;DHT22;11784;49.818;8.632;2023-02-01T00:45:18;9.10;94.70
23231;DHT22;11784;49.818;8.632;2023-02-01T00:47:43;9.20;94.60
23231;DHT22;11784;49.818;8.632;2023-02-01T00:50:10;9.20;94.60
23231;DHT22;11784;49.818;8.632;2023-02-01T00:52:35;9.20;94.50
23231;DHT22;11784;49.818;8.632;2023-02-01T00:55:01;9.30;94.20
23231;DHT22;11784;49.818;8.632;2023-02-01T00:57:26;9.30;94.30
23231;DHT22;11784;49.818;8.632;2023-02-01T00:59:52;9.30;94.20
23231;DHT22;11784;49.818;8.632;2023-02-01T01:02:17;9.30;94.10
23231;DHT22;11784;49.818;8.632;2023-02-01T01:04:43;9.40;94.10
23231;DHT22;11784;49.818;8.632;2023-02-01T01:07:08;9.40;94.10
23231;DHT22;11784;49.818;8.632;2023-02-01T01:09:34;9.40;93.90
23231;DHT22;11784;49.818;8.632;2023-02-01T01:12:00;9.40;93.70
23231;DHT22;11784;49.818;8.632;2023-02-01T01:14:28;9.40;93.60
23231;DHT22;11784;49.818;8.632;2023-02-01T01:16:54;9.40;93.70
23231;DHT22;11784;49.818;8.632;2023-02-01T01:19:19;9.40;93.70
23231;DHT22;11784;49.818;8.632;2023-02-01T01:21:45;9.40;93.70
23231;DHT22;11784;49.818;8.632;2023-02-01T01:24:11;9.40;93.70
23231;DHT22;11784;49.818;8.632;2023-02-01T01:26:36;9.40;93.60
23231;DHT22;11784;49.818;8.632;2023-02-01T01:29:02;9.40;93.60
23231;DHT22;11784;49.818;8.632;2023-02-01T01:31:28;9.40;93.50
23231;DHT22;11784;49.818;8.632;2023-02-01T01:33:56;9.40;93.50
23231;DHT22;11784;49.818;8.632;2023-02-01T01:36:22;9.50;93.50
23231;DHT22;11784;49.818;8.632;2023-02-01T01:38:48;9.50;93.60
23231;DHT22;11784;49.818;8.632;2023-02-01T01:41:37;9.50;93.50
23231;DHT22;11784;49.818;8.632;2023-02-01T01:44:53;9.60;93.40
23231;DHT22;11784;49.818;8.632;2023-02-01T01:46:52;9.60;93.30
23231;DHT22;11784;49.818;8.632;2023-02-01T01:49:22;9.50;93.30
23231;DHT22;11784;49.818;8.632;2023-02-01T01:51:56;9.50;93.80
23231;DHT22;11784;49.818;8.632;2023-02-01T01:54:29;9.60;93.40
23231;DHT22;11784;49.818;8.632;2023-02-01T01:57:06;9.50;93.20
23231;DHT22;11784;49.818;8.632;2023-02-01T01:59:32;9.50;93.40
23231;DHT22;11784;49.818;8.632;2023-02-01T02:01:59;9.60;93.30
23231;DHT22;11784;49.818;8.632;2023-02-01T02:04:25;9.50;93.40
23231;DHT22;11784;49.818;8.632;2023-02-01T02:07:07;9.50;93.50
23231;DHT22;11784;49.818;8.632;2023-02-01T02:09:35;9.50;93.50
23231;DHT22;11784;49.818;8.632;2023-02-01T02:12:00;9.50;93.50
23231;DHT22;11784;49.818;8.632;2023-02-01T02:14:26;9.40;93.80
23231;DHT22;11784;49.818;8.632;2023-02-01T02:28:32;9.10;94.80
23231;DHT22;11784;49.818;8.632;2023-02-01T02:31:25;9.10;95.00
23231;DHT22;11784;49.818;8.632;2023-02-01T02:37:14;9.10;95.10
23231;DHT22;11784;49.818;8.632;2023-02-01T02:39:53;9.00;95.20
23231;DHT22;11784;49.818;8.632;2023-02-01T02:42:49;9.00;95.40
23231;DHT22;11784;49.818;8.632;2023-02-01T02:46:00;9.10;95.10
23231;DHT22;11784;49.818;8.632;2023-02-01T02:49:04;9.10;95.10
23231;DHT22;11784;49.818;8.632;2023-02-01T02:51:40;9.10;95.00
23231;DHT22;11784;49.818;8.632;2023-02-01T02:54:33;9.10;94.90
23231;DHT22;11784;49.818;8.632;2023-02-01T03:00:05;9.10;95.30
23231;DHT22;11784;49.818;8.632;2023-02-01T03:02:50;9.10;94.90
23231;DHT22;11784;49.818;8.632;2023-02-01T03:05:37;9.20;94.80
23231;DHT22;11784;49.818;8.632;2023-02-01T03:11:02;9.20;94.80
23231;DHT22;11784;49.818;8.632;2023-02-01T03:13:52;9.20;94.90
23231;DHT22;11784;49.818;8.632;2023-02-01T03:16:40;9.20;95.00
23231;DHT22;11784;49.818;8.632;2023-02-01T03:19:29;9.10;95.10
23231;DHT22;11784;49.818;8.632;2023-02-01T03:22:00;9.10;95.20
23231;DHT22;11784;49.818;8.632;2023-02-01T03:27:20;9.00;95.70
23231;DHT22;11784;49.818;8.632;2023-02-01T03:30:09;9.00;95.90
23231;DHT22;11784;49.818;8.632;2023-02-01T03:32:36;8.90;96.40
23231;DHT22;11784;49.818;8.632;2023-02-01T03:35:50;8.70;97.20
23231;DHT22;11784;49.818;8.632;2023-02-01T03:41:29;8.80;97.50
23231;DHT22;11784;49.818;8.632;2023-02-01T03:44:24;8.80;97.40
23231;DHT22;11784;49.818;8.632;2023-02-01T03:47:14;8.90;97.50
23231;DHT22;11784;49.818;8.632;2023-02-01T03:49:52;8.90;97.50
23231;DHT22;11784;49.818;8.632;2023-02-01T03:52:25;8.90;97.50
23231;DHT22;11784;49.818;8.632;2023-02-01T03:54:53;8.90;97.30
23231;DHT22;11784;49.818;8.632;2023-02-01T03:57:25;8.90;97.50
23231;DHT22;11784;49.818;8.632;2023-02-01T03:59:51;8.90;97.60
23231;DHT22;11784;49.818;8.632;2023-02-01T04:02:17;8.90;97.60
23231;DHT22;11784;49.818;8.632;2023-02-01T04:04:42;8.80;97.80
23231;DHT22;11784;49.818;8.632;2023-02-01T04:07:08;8.80;97.80
23231;DHT22;11784;49.818;8.632;2023-02-01T04:09:34;8.90;97.80
23231;DHT22;11784;49.818;8.632;2023-02-01T04:11:59;8.80;97.90
23231;DHT22;11784;49.818;8.632;2023-02-01T04:14:25;8.90;97.80
23231;DHT22;11784;49.818;8.632;2023-02-01T04:16:50;8.90;97.90
23231;DHT22;11784;49.818;8.632;2023-02-01T04:19:16;8.90;97.60
23231;DHT22;11784;49.818;8.632;2023-02-01T04:21:41;8.90;97.70
23231;DHT22;11784;49.818;8.632;2023-02-01T04:24:07;9.00;97.60
23231;DHT22;11784;49.818;8.632;2023-02-01T04:26:33;8.90;97.70
23231;DHT22;11784;49.818;8.632;2023-02-01T04:28:59;8.90;97.80
23231;DHT22;11784;49.818;8.632;2023-02-01T04:31:24;9.00;97.90
23231;DHT22;11784;49.818;8.632;2023-02-01T04:33:54;9.00;97.80
23231;DHT22;11784;49.818;8.632;2023-02-01T04:36:21;9.00;97.20
23231;DHT22;11784;49.818;8.632;2023-02-01T04:38:50;9.00;97.20
23231;DHT22;11784;49.818;8.632;2023-02-01T04:41:16;9.00;97.00
23231;DHT22;11784;49.818;8.632;2023-02-01T04:43:48;9.00;97.20
23231;DHT22;11784;49.818;8.632;2023-02-01T04:46:14;9.00;97.20
23231;DHT22;11784;49.818;8.632;2023-02-01T04:48:40;8.90;97.30
23231;DHT22;11784;49.818;8.632;2023-02-01T04:51:06;8.90;97.40
23231;DHT22;11784;49.818;8.632;2023-02-01T04:53:31;8.80;97.50
23231;DHT22;11784;49.818;8.632;2023-02-01T04:55:57;8.90;97.10
23231;DHT22;11784;49.818;8.632;2023-02-01T04:58:23;8.90;96.90
23231;DHT22;11784;49.818;8.632;2023-02-01T05:00:48;8.80;96.60
23231;DHT22;11784;49.818;8.632;2023-02-01T05:03:15;8.80;96.70
23231;DHT22;11784;49.818;8.632;2023-02-01T05:05:41;8.80;97.00
23231;DHT22;11784;49.818;8.632;2023-02-01T05:08:06;8.70;97.00
23231;DHT22;11784;49.818;8.632;2023-02-01T05:10:32;8.70;97.10
23231;DHT22;11784;49.818;8.632;2023-02-01T05:12:57;8.70;96.90
23231;DHT22;11784;49.818;8.632;2023-02-01T05:15:41;8.70;96.70
23231;DHT22;11784;49.818;8.632;2023-02-01T05:18:07;8.80;96.90
23231;DHT22;11784;49.818;8.632;2023-02-01T05:20:32;8.80;96.80
23231;DHT22;11784;49.818;8.632;2023-02-01T05:22:58;8.80;96.80
23231;DHT22;11784;49.818;8.632;2023-02-01T05:25:23;8.80;96.60
23231;DHT22;11784;49.818;8.632;2023-02-01T05:27:49;8.80;96.30
23231;DHT22;11784;49.818;8.632;2023-02-01T05:30:14;8.80;96.30
23231;DHT22;11784;49.818;8.632;2023-02-01T05:32:40;8.80;96.30
23231;DHT22;11784;49.818;8.632;2023-02-01T05:35:06;8.70;96.30
23231;DHT22;11784;49.818;8.632;2023-02-01T05:37:31;8.70;96.40
23231;DHT22;11784;49.818;8.632;2023-02-01T05:39:57;8.70;95.90
23231;DHT22;11784;49.818;8.632;2023-02-01T05:42:22;8.80;95.70
23231;DHT22;11784;49.818;8.632;2023-02-01T05:44:48;8.80;96.10
23231;DHT22;11784;49.818;8.632;2023-02-01T05:47:13;8.80;95.10
23231;DHT22;11784;49.818;8.632;2023-02-01T05:49:39;8.80;95.40
23231;DHT22;11784;49.818;8.632;2023-02-01T05:52:05;8.80;95.40
23231;DHT22;11784;49.818;8.632;2023-02-01T05:54:30;8.80;95.30
23231;DHT22;11784;49.818;8.632;2023-02-01T05:56:56;8.80;95.20
23231;DHT22;11784;49.818;8.632;2023-02-01T05:59:22;8.80;95.10
23231;DHT22;11784;49.818;8.632;2023-02-01T06:01:47;8.90;95.00
23231;DHT22;11784;49.818;8.632;2023-02-01T06:04:13;8.90;95.00
23231;DHT22;11784;49.818;8.632;2023-02-01T06:06:38;8.90;94.80
23231;DHT22;11784;49.818;8.632;2023-02-01T06:09:04;9.00;94.80
23231;DHT22;11784;49.818;8.632;2023-02-01T06:11:30;9.00;94.60
23231;DHT22;11784;49.818;8.632;2023-02-01T06:13:55;9.00;94.80
23231;DHT22;11784;49.818;8.632;2023-02-01T06:16:21;9.00;95.00
23231;DHT22;11784;49.818;8.632;2023-02-01T06:18:48;9.00;94.50
23231;DHT22;11784;49.818;8.632;2023-02-01T06:21:13;9.00;94.40
23231;DHT22;11784;49.818;8.632;2023-02-01T06:23:41;9.00;94.20
23231;DHT22;11784;49.818;8.632;2023-02-01T06:26:07;9.00;94.60
23231;DHT22;11784;49.818;8.632;2023-02-01T06:28:35;9.00;94.40
23231;DHT22;11784;49.818;8.632;2023-02-01T06:31:07;9.00;94.70
23231;DHT22;11784;49.818;8.632;2023-02-01T06:33:33;9.00;94.70
23231;DHT22;11784;49.818;8.632;2023-02-01T06:36:00;9.00;94.80
23231;DHT22;11784;49.818;8.632;2023-02-01T06:38:27;9.00;94.80
23231;DHT22;11784;49.818;8.632;2023-02-01T06:40:53;9.10;94.90
23231;DHT22;11784;49.818;8.632;2023-02-01T06:43:20;9.00;95.20
23231;DHT22;11784;49.818;8.632;2023-02-01T06:45:46;9.10;95.20
23231;DHT22;11784;49.818;8.632;2023-02-01T06:48:11;9.00;94.70
23231;DHT22;11784;49.818;8.632;2023-02-01T06:50:37;8.80;95.10
23231;DHT22;11784;49.818;8.632;2023-02-01T06:53:02;8.80;95.40
23231;DHT22;11784;49.818;8.632;2023-02-01T06:55:28;8.70;94.90
23231;DHT22;11784;49.818;8.632;2023-02-01T06:57:54;8.60;94.50
23231;DHT22;11784;49.818;8.632;2023-02-01T07:00:21;8.50;94.70
23231;DHT22;11784;49.818;8.632;2023-02-01T07:02:47;8.40;95.00
23231;DHT22;11784;49.818;8.632;2023-02-01T07:05:12;8.40;95.10
23231;DHT22;11784;49.818;8.632;2023-02-01T07:07:38;8.40;95.30
23231;DHT22;11784;49.818;8.632;2023-02-01T07:10:03;8.40;95.10
23231;DHT22;11784;49.818;8.632;2023-02-01T07:12:29;8.40;95.30
23231;DHT22;11784;49.818;8.632;2023-02-01T07:14:55;8.40;95.40
23231;DHT22;11784;49.818;8.632;2023-02-01T07:17:21;8.30;95.70
23231;DHT22;11784;49.818;8.632;2023-02-01T07:19:47;8.30;95.90
23231;DHT22;11784;49.818;8.632;2023-02-01T07:22:12;8.40;96.10
23231;DHT22;11784;49.818;8.632;2023-02-01T07:24:38;8.40;96.10
23231;DHT22;11784;49.818;8.632;2023-02-01T07:27:04;8.40;96.10
23231;DHT22;11784;49.818;8.632;2023-02-01T07:29:31;8.50;96.10
23231;DHT22;11784;49.818;8.632;2023-02-01T07:31:56;8.50;95.70
23231;DHT22;11784;49.818;8.632;2023-02-01T07:34:22;8.50;95.50
23231;DHT22;11784;49.818;8.632;2023-02-01T07:36:47;8.60;95.60
23231;DHT22;11784;49.818;8.632;2023-02-01T07:39:13;8.60;95.60
23231;DHT22;11784;49.818;8.632;2023-02-01T07:41:38;8.60;95.40
23231;DHT22;11784;49.818;8.632;2023-02-01T07:44:04;8.60;95.50
23231;DHT22;11784;49.818;8.632;2023-02-01T07:46:29;8.70;95.60
23231;DHT22;11784;49.818;8.632;2023-02-01T07:48:55;8.70;95.50
23231;DHT22;11784;49.818;8.632;2023-02-01T07:51:21;8.70;95.40
23231;DHT22;11784;49.818;8.632;2023-02-01T07:53:46;8.80;95.40
23231;DHT22;11784;49.818;8.632;2023-02-01T07:56:17;8.80;95.40
23231;DHT22;11784;49.818;8.632;2023-02-01T07:58:46;8.80;95.20
23231;DHT22;11784;49.818;8.632;2023-02-01T08:01:21;8.80;95.40
23231;DHT22;11784;49.818;8.632;2023-02-01T08:06:20;8.90;95.40
23231;DHT22;11784;49.818;8.632;2023-02-01T08:08:47;8.90;95.50
23231;DHT22;11784;49.818;8.632;2023-02-01T08:11:14;9.00;95.40
23231;DHT22;11784;49.818;8.632;2023-02-01T08:13:40;9.00;95.10
23231;DHT22;11784;49.818;8.632;2023-02-01T08:16:08;9.00;95.20
23231;DHT22;11784;49.818;8.632;2023-02-01T08:18:35;9.10;95.10
23231;DHT22;11784;49.818;8.632;2023-02-01T08:21:15;9.10;94.80
23231;DHT22;11784;49.818;8.632;2023-02-01T08:23:42;9.10;95.00
23231;DHT22;11784;49.818;8.632;2023-02-01T08:28:42;9.20;94.50
23231;DHT22;11784;49.818;8.632;2023-02-01T08:31:11;9.30;94.10
23231;DHT22;11784;49.818;8.632;2023-02-01T08:33:40;9.30;93.90
23231;DHT22;11784;49.818;8.632;2023-02-01T08:36:07;9.30;93.50
23231;DHT22;11784;49.818;8.632;2023-02-01T08:38:35;9.30;93.50
23231;DHT22;11784;49.818;8.632;2023-02-01T08:41:06;9.30;93.60
23231;DHT22;11784;49.818;8.632;2023-02-01T08:43:32;9.30;93.80
23231;DHT22;11784;49.818;8.632;2023-02-01T08:45:58;9.40;93.70
23231;DHT22;11784;49.818;8.632;2023-02-01T08:48:23;9.40;93.60
23231;DHT22;11784;49.818;8.632;2023-02-01T08:50:48;9.50;93.40
23231;DHT22;11784;49.818;8.632;2023-02-01T08:53:14;9.60;93.20
23231;DHT22;11784;49.818;8.632;2023-02-01T08:55:40;9.60;93.20
23231;DHT22;11784;49.818;8.632;2023-02-01T08:58:05;9.60;93.10
23231;DHT22;11784;49.818;8.632;2023-02-01T09:00:32;9.70;92.60
23231;DHT22;11784;49.818;8.632;2023-02-01T09:02:57;9.70;92.40
23231;DHT22;11784;49.818;8.632;2023-02-01T09:05:23;9.70;92.40
23231;DHT22;11784;49.818;8.632;2023-02-01T09:07:52;9.70;92.50
23231;DHT22;11784;49.818;8.632;2023-02-01T09:10:17;9.70;92.40
23231;DHT22;11784;49.818;8.632;2023-02-01T09:12:43;9.70;92.50
23231;DHT22;11784;49.818;8.632;2023-02-01T09:15:09;9.60;92.40
23231;DHT22;11784;49.818;8.632;2023-02-01T09:17:34;9.60;92.40
23231;DHT22;11784;49.818;8.632;2023-02-01T09:20:00;9.60;92.30
23231;DHT22;11784;49.818;8.632;2023-02-01T09:22:25;9.60;92.30
23231;DHT22;11784;49.818;8.632;2023-02-01T09:24:52;9.60;91.80
23231;DHT22;11784;49.818;8.632;2023-02-01T09:27:18;9.60;91.80
23231;DHT22;11784;49.818;8.632;2023-02-01T09:29:43;9.50;92.10
23231;DHT22;11784;49.818;8.632;2023-02-01T09:32:10;9.50;92.20
23231;DHT22;11784;49.818;8.632;2023-02-01T09:34:36;9.60;92.00
23231;DHT22;11784;49.818;8.632;2023-02-01T09:37:01;9.60;91.40
23231;DHT22;11784;49.818;8.632;2023-02-01T09:39:27;9.50;91.60
23231;DHT22;11784;49.818;8.632;2023-02-01T09:42:23;9.50;91.50
23231;DHT22;11784;49.818;8.632;2023-02-01T09:47:48;9.60;91.40
23231;DHT22;11784;49.818;8.632;2023-02-01T09:50:28;9.60;91.60
23231;DHT22;11784;49.818;8.632;2023-02-01T09:53:00;9.60;90.90
23231;DHT22;11784;49.818;8.632;2023-02-01T09:55:40;9.60;90.30
23231;DHT22;11784;49.818;8.632;2023-02-01T09:58:22;9.60;90.10
23231;DHT22;11784;49.818;8.632;2023-02-01T10:00:53;9.50;90.00
23231;DHT22;11784;49.818;8.632;2023-02-01T10:03:20;9.40;89.40
23231;DHT22;11784;49.818;8.632;2023-02-01T10:15:17;9.30;88.40
23231;DHT22;11784;49.818;8.632;2023-02-01T10:20:50;9.30;88.00
23231;DHT22;11784;49.818;8.632;2023-02-01T10:26:05;9.40;86.10
23231;DHT22;11784;49.818;8.632;2023-02-01T10:28:34;9.40;85.30
23231;DHT22;11784;49.818;8.632;2023-02-01T10:31:02;9.40;86.00
23231;DHT22;11784;49.818;8.632;2023-02-01T10:33:39;9.50;84.50
23231;DHT22;11784;49.818;8.632;2023-02-01T10:38:53;9.50;84.00
23231;DHT22;11784;49.818;8.632;2023-02-01T10:41:21;9.60;84.10
23231;DHT22;11784;49.818;8.632;2023-02-01T10:43:50;9.60;83.80
23231;DHT22;11784;49.818;8.632;2023-02-01T10:46:17;9.60;83.00
23231;DHT22;11784;49.818;8.632;2023-02-01T10:48:43;9.70;84.00
23231;DHT22;11784;49.818;8.632;2023-02-01T10:51:16;9.80;82.70
23231;DHT22;11784;49.818;8.632;2023-02-01T10:53:57;9.80;82.90
23231;DHT22;11784;49.818;8.632;2023-02-01T10:56:25;9.80;82.70
23231;DHT22;11784;49.818;8.632;2023-02-01T10:58:52;9.80;82.60
23231;DHT22;11784;49.818;8.632;2023-02-01T11:01:39;9.90;82.30
23231;DHT22;11784;49.818;8.632;2023-02-01T11:04:11;9.90;81.70
23231;DHT22;11784;49.818;8.632;2023-02-01T11:07:04;9.90;81.40
23231;DHT22;11784;49.818;8.632;2023-02-01T11:09:35;9.90;80.80
23231;DHT22;11784;49.818;8.632;2023-02-01T11:12:04;9.80;80.20
23231;DHT22;11784;49.818;8.632;2023-02-01T11:14:38;9.70;81.10
23231;DHT22;11784;49.818;8.632;2023-02-01T11:17:35;9.70;81.40
23231;DHT22;11784;49.818;8.632;2023-02-01T11:20:08;9.70;82.20
23231;DHT22;11784;49.818;8.632;2023-02-01T11:22:37;9.70;82.20
23231;DHT22;11784;49.818;8.632;2023-02-01T11:25:09;9.60;82.00
23231;DHT22;11784;49.818;8.632;2023-02-01T11:27:36;9.60;82.50
23231;DHT22;11784;49.818;8.632;2023-02-01T11:30:03;9.60;82.20
23231;DHT22;11784;49.818;8.632;2023-02-01T11:32:30;9.60;82.30
23231;DHT22;11784;49.818;8.632;2023-02-01T11:35:01;9.60;81.90
23231;DHT22;11784;49.818;8.632;2023-02-01T11:37:31;9.60;81.70
23231;DHT22;11784;49.818;8.632;2023-02-01T11:40:01;9.60;81.70
23231;DHT22;11784;49.818;8.632;2023-02-01T11:42:29;9.60;81.10
23231;DHT22;11784;49.818;8.632;2023-02-01T11:45:19;9.70;80.90
23231;DHT22;11784;49.818;8.632;2023-02-01T11:47:45;9.70;80.40
23231;DHT22;11784;49.818;8.632;2023-02-01T11:50:17;9.60;81.00
23231;DHT22;11784;49.818;8.632;2023-02-01T12:01:49;9.80;80.30
23231;DHT22;11784;49.818;8.632;2023-02-01T12:04:44;9.80;79.80
23231;DHT22;11784;49.818;8.632;2023-02-01T12:07:20;9.70;79.80
23231;DHT22;11784;49.818;8.632;2023-02-01T12:12:28;9.60;80.70
23231;DHT22;11784;49.818;8.632;2023-02-01T12:15:24;9.60;81.00
23231;DHT22;11784;49.818;8.632;2023-02-01T12:18:18;9.60;80.40
23231;DHT22;11784;49.818;8.632;2023-02-01T12:20:59;9.60;81.50
23231;DHT22;11784;49.818;8.632;2023-02-01T12:43:47;9.50;82.20
23231;DHT22;11784;49.818;8.632;2023-02-01T12:46:23;9.50;81.70
23231;DHT22;11784;49.818;8.632;2023-02-01T12:49:02;9.50;81.60
23231;DHT22;11784;49.818;8.632;2023-02-01T12:51:33;9.40;80.80
23231;DHT22;11784;49.818;8.632;2023-02-01T12:54:19;9.50;81.10
23231;DHT22;11784;49.818;8.632;2023-02-01T12:56:50;9.50;80.50
23231;DHT22;11784;49.818;8.632;2023-02-01T13:02:01;9.50;80.60
23231;DHT22;11784;49.818;8.632;2023-02-01T13:04:38;9.60;79.80
23231;DHT22;11784;49.818;8.632;2023-02-01T13:07:14;9.60;80.50
23231;DHT22;11784;49.818;8.632;2023-02-01T13:12:37;9.60;80.40
23231;DHT22;11784;49.818;8.632;2023-02-01T13:15:09;9.70;78.90
23231;DHT22;11784;49.818;8.632;2023-02-01T13:17:39;9.70;79.50
23231;DHT22;11784;49.818;8.632;2023-02-01T13:20:41;9.80;79.70
23231;DHT22;11784;49.818;8.632;2023-02-01T13:23:14;9.80;79.20
23231;DHT22;11784;49.818;8.632;2023-02-01T13:25:48;9.80;79.00
23231;DHT22;11784;49.818;8.632;2023-02-01T13:28:47;9.80;79.10
23231;DHT22;11784;49.818;8.632;2023-02-01T13:34:37;9.70;79.70
23231;DHT22;11784;49.818;8.632;2023-02-01T13:37:27;9.70;79.20
23231;DHT22;11784;49.818;8.632;2023-02-01T13:42:51;9.60;79.40
23231;DHT22;11784;49.818;8.632;2023-02-01T13:45:22;9.60;80.00
23231;DHT22;11784;49.818;8.632;2023-02-01T13:47:50;9.60;80.30
23231;DHT22;11784;49.818;8.632;2023-02-01T13:50:27;9.60;80.90
23231;DHT22;11784;49.818;8.632;2023-02-01T13:55:38;9.70;80.60
23231;DHT22;11784;49.818;8.632;2023-02-01T14:00:37;9.80;80.30
23231;DHT22;11784;49.818;8.632;2023-02-01T14:03:08;9.80;79.70
23231;DHT22;11784;49.818;8.632;2023-02-01T14:08:13;9.90;79.80
23231;DHT22;11784;49.818;8.632;2023-02-01T14:10:52;9.90;79.10
23231;DHT22;11784;49.818;8.632;2023-02-01T14:13:38;9.90;78.80
23231;DHT22;11784;49.818;8.632;2023-02-01T14:23:42;9.90;78.10
23231;DHT22;11784;49.818;8.632;2023-02-01T14:26:45;10.00;78.90
23231;DHT22;11784;49.818;8.632;2023-02-01T14:40:05;9.90;79.20
23231;DHT22;11784;49.818;8.632;2023-02-01T14:53:14;10.10;80.00
23231;DHT22;11784;49.818;8.632;2023-02-01T14:58:51;10.10;80.10
23231;DHT22;11784;49.818;8.632;2023-02-01T15:01:35;10.10;80.10
23231;DHT22;11784;49.818;8.632;2023-02-01T15:04:13;10.10;79.90
23231;DHT22;11784;49.818;8.632;2023-02-01T15:07:07;10.10;79.90
23231;DHT22;11784;49.818;8.632;2023-02-01T15:09:45;10.00;79.70
23231;DHT22;11784;49.818;8.632;2023-02-01T15:14:45;10.00;79.40
23231;DHT22;11784;49.818;8.632;2023-02-01T15:17:25;10.00;79.40
23231;DHT22;11784;49.818;8.632;2023-02-01T15:20:19;10.00;78.70
23231;DHT22;11784;49.818;8.632;2023-02-01T15:23:16;10.00;78.80
23231;DHT22;11784;49.818;8.632;2023-02-01T15:25:45;10.00;78.60
23231;DHT22;11784;49.818;8.632;2023-02-01T15:28:13;10.00;78.20
23231;DHT22;11784;49.818;8.632;2023-02-01T15:30:39;10.00;78.00
23231;DHT22;11784;49.818;8.632;2023-02-01T15:33:13;10.00;78.10
23231;DHT22;11784;49.818;8.632;2023-02-01T15:41:05;10.10;77.50
23231;DHT22;11784;49.818;8.632;2023-02-01T15:43:43;10.10;77.30
23231;DHT22;11784;49.818;8.632;2023-02-01T15:46:18;10.10;77.30
23231;DHT22;11784;49.818;8.632;2023-02-01T15:48:48;10.00;77.20
23231;DHT22;11784;49.818;8.632;2023-02-01T15:51:18;10.00;77.60
23231;DHT22;11784;49.818;8.632;2023-02-01T15:53:47;10.10;77.80
23231;DHT22;11784;49.818;8.632;2023-02-01T15:56:14;10.00;77.60
23231;DHT22;11784;49.818;8.632;2023-02-01T15:58:42;10.00;77.50
23231;DHT22;11784;49.818;8.632;2023-02-01T16:01:11;10.00;77.60
23231;DHT22;11784;49.818;8.632;2023-02-01T16:03:42;10.00;78.20
23231;DHT22;11784;49.818;8.632;2023-02-01T16:06:10;10.00;77.80
23231;DHT22;11784;49.818;8.632;2023-02-01T16:08:37;10.00;77.90
23231;DHT22;11784;49.818;8.632;2023-02-01T16:13:34;10.00;78.20
23231;DHT22;11784;49.818;8.632;2023-02-01T16:16:00;10.00;77.80
23231;DHT22;11784;49.818;8.632;2023-02-01T16:18:25;9.90;77.90
23231;DHT22;11784;49.818;8.632;2023-02-01T16:20:51;9.90;78.30
23231;DHT22;11784;49.818;8.632;2023-02-01T16:23:16;9.90;78.10
23231;DHT22;11784;49.818;8.632;2023-02-01T16:25:42;9.90;78.40
23231;DHT22;11784;49.818;8.632;2023-02-01T16:28:08;9.90;78.60
23231;DHT22;11784;49.818;8.632;2023-02-01T16:30:34;9.90;78.40
23231;DHT22;11784;49.818;8.632;2023-02-01T16:33:01;9.90;78.40
23231;DHT22;11784;49.818;8.632;2023-02-01T16:35:35;9.90;78.50
23231;DHT22;11784;49.818;8.632;2023-02-01T16:38:08;9.90;78.40
23231;DHT22;11784;49.818;8.632;2023-02-01T16:40:38;9.90;78.50
23231;DHT22;11784;49.818;8.632;2023-02-01T16:43:22;9.90;78.70
23231;DHT22;11784;49.818;8.632;2023-02-01T16:45:50;9.90;78.80
23231;DHT22;11784;49.818;8.632;2023-02-01T16:48:30;9.80;78.90
23231;DHT22;11784;49.818;8.632;2023-02-01T16:50:58;9.80;79.00
23231;DHT22;11784;49.818;8.632;2023-02-01T16:53:27;9.70;79.30
23231;DHT22;11784;49.818;8.632;2023-02-01T16:55:54;9.80;79.50
23231;DHT22;11784;49.818;8.632;2023-02-01T16:58:20;9.80;79.30
23231;DHT22;11784;49.818;8.632;2023-02-01T17:00:47;9.80;79.80
23231;DHT22;11784;49.818;8.632;2023-02-01T17:03:13;9.80;79.70
23231;DHT22;11784;49.818;8.632;2023-02-01T17:05:53;9.80;79.50
23231;DHT22;11784;49.818;8.632;2023-02-01T17:08:30;9.80;79.50
23231;DHT22;11784;49.818;8.632;2023-02-01T17:10:56;9.80;79.60
23231;DHT22;11784;49.818;8.632;2023-02-01T17:13:22;9.80;79.60
23231;DHT22;11784;49.818;8.632;2023-02-01T17:16:11;9.90;79.70
23231;DHT22;11784;49.818;8.632;2023-02-01T17:18:38;9.90;79.50
23231;DHT22;11784;49.818;8.632;2023-02-01T17:21:04;9.80;79.20
23231;DHT22;11784;49.818;8.632;2023-02-01T17:23:31;9.80;79.50
23231;DHT22;11784;49.818;8.632;2023-02-01T17:25:57;9.70;79.30
23231;DHT22;11784;49.818;8.632;2023-02-01T17:28:24;9.70;79.80
23231;DHT22;11784;49.818;8.632;2023-02-01T17:30:50;9.70;80.00
23231;DHT22;11784;49.818;8.632;2023-02-01T17:33:34;9.70;79.90
23231;DHT22;11784;49.818;8.632;2023-02-01T17:36:01;9.60;80.00
23231;DHT22;11784;49.818;8.632;2023-02-01T17:38:27;9.60;80.10
23231;DHT22;11784;49.818;8.632;2023-02-01T17:40:52;9.60;80.30
23231;DHT22;11784;49.818;8.632;2023-02-01T17:43:21;9.60;80.40
23231;DHT22;11784;49.818;8.632;2023-02-01T17:46:14;9.70;80.30
23231;DHT22;11784;49.818;8.632;2023-02-01T17:48:41;9.70;80.00
23231;DHT22;11784;49.818;8.632;2023-02-01T17:51:17;9.60;80.10
23231;DHT22;11784;49.818;8.632;2023-02-01T17:53:44;9.60;80.50
23231;DHT22;11784;49.818;8.632;2023-02-01T17:56:19;9.60;80.60
23231;DHT22;11784;49.818;8.632;2023-02-01T17:58:45;9.60;81.20
23231;DHT22;11784;49.818;8.632;2023-02-01T18:01:22;9.60;81.40
23231;DHT22;11784;49.818;8.632;2023-02-01T18:03:48;9.60;81.10
23231;DHT22;11784;49.818;8.632;2023-02-01T18:06:16;9.60;81.10
23231;DHT22;11784;49.818;8.632;2023-02-01T18:08:43;9.60;81.40
23231;DHT22;11784;49.818;8.632;2023-02-01T18:11:12;9.60;81.20
23231;DHT22;11784;49.818;8.632;2023-02-01T18:13:38;9.60;81.10
23231;DHT22;11784;49.818;8.632;2023-02-01T18:16:04;9.60;80.60
23231;DHT22;11784;49.818;8.632;2023-02-01T18:18:30;9.70;80.70
23231;DHT22;11784;49.818;8.632;2023-02-01T18:20:57;9.70;80.40
23231;DHT22;11784;49.818;8.632;2023-02-01T18:23:23;9.70;80.40
23231;DHT22;11784;49.818;8.632;2023-02-01T18:25:50;9.70;80.20
23231;DHT22;11784;49.818;8.632;2023-02-01T18:28:17;9.70;80.20
23231;DHT22;11784;49.818;8.632;2023-02-01T18:30:50;9.80;79.80
23231;DHT22;11784;49.818;8.632;2023-02-01T18:33:18;9.80;79.60